createdAt,value
2022-08-17T00:00:34.379Z,99664.41
2022-08-17T00:03:09.995Z,99673.38
2022-08-17T00:05:43.827Z,99672.66
2022-08-17T00:08:16.892Z,99671.13
2022-08-17T00:10:46.377Z,99671.97
2022-08-17T00:13:17.410Z,99675.97
2022-08-17T00:15:45.853Z,99681.00
2022-08-17T00:19:05.690Z,99681.19
2022-08-17T00:21:10.468Z,99682.78
2022-08-17T00:23:39.389Z,99677.38
2022-08-17T00:26:14.631Z,99674.75
2022-08-17T00:29:02.757Z,99665.72
2022-08-17T00:31:31.772Z,99668.09
2022-08-17T00:34:01.058Z,99657.78
2022-08-17T00:36:29.669Z,99665.53
2022-08-17T00:38:57.690Z,99662.00
2022-08-17T00:41:28.071Z,99665.28
2022-08-17T00:43:58.465Z,99665.69
2022-08-17T00:46:29.592Z,99660.19
2022-08-17T00:48:58.006Z,99659.88
2022-08-17T00:51:33.437Z,99654.13
2022-08-17T00:54:05.711Z,99653.97
2022-08-17T00:56:37.435Z,99655.56
2022-08-17T00:59:07.613Z,99654.16
2022-08-17T01:01:36.126Z,99660.97
2022-08-17T01:04:05.095Z,99658.75
2022-08-17T01:06:34.830Z,99662.78
2022-08-17T01:09:04.711Z,99654.84
2022-08-17T01:11:36.514Z,99650.06
2022-08-17T01:14:04.836Z,99651.75
2022-08-17T01:16:33.675Z,99645.53
2022-08-17T01:19:06.034Z,99646.41
2022-08-17T01:21:42.620Z,99650.88
2022-08-17T01:24:12.534Z,99660.78
2022-08-17T01:26:41.976Z,99663.50
2022-08-17T01:29:10.599Z,99672.41
2022-08-17T01:31:41.510Z,99670.91
2022-08-17T01:34:12.231Z,99667.00
2022-08-17T01:36:42.798Z,99658.53
2022-08-17T01:39:18.862Z,99667.41
2022-08-17T01:41:52.486Z,99664.53
2022-08-17T01:44:21.735Z,99664.09
2022-08-17T01:46:49.983Z,99667.88
2022-08-17T01:49:20.310Z,99670.22
2022-08-17T01:51:48.500Z,99661.50
2022-08-17T01:54:19.889Z,99663.06
2022-08-17T01:56:50.777Z,99665.81
2022-08-17T01:59:20.734Z,99663.59
2022-08-17T02:01:48.958Z,99661.38
2022-08-17T02:04:17.097Z,99669.00
2022-08-17T02:06:53.400Z,99657.44
2022-08-17T02:09:26.187Z,99649.09
2022-08-17T02:11:58.991Z,99656.34
2022-08-17T02:14:27.377Z,99650.78
2022-08-17T02:16:56.072Z,99657.56
2022-08-17T02:19:24.378Z,99659.38
2022-08-17T02:21:54.774Z,99658.28
2022-08-17T02:25:01.218Z,99665.78
2022-08-17T02:27:16.576Z,99669.50
2022-08-17T02:29:44.502Z,99667.72
2022-08-17T02:32:25.418Z,99670.63
2022-08-17T02:34:55.931Z,99673.56
2022-08-17T02:37:23.845Z,99679.56
2022-08-17T02:39:53.677Z,99676.22
2022-08-17T02:42:25.995Z,99671.22
2022-08-17T02:44:53.936Z,99675.97
2022-08-17T02:47:21.857Z,99670.41
2022-08-17T02:49:55.628Z,99672.91
2022-08-17T02:52:42.907Z,99678.06
2022-08-17T02:55:15.663Z,99672.91
2022-08-17T02:57:43.867Z,99674.88
2022-08-17T03:00:15.981Z,99681.09
2022-08-17T03:02:45.084Z,99680.38
2022-08-17T03:05:17.588Z,99679.28
2022-08-17T03:07:45.513Z,99675.25
2022-08-17T03:10:17.272Z,99668.88
2022-08-17T03:12:46.878Z,99665.66
2022-08-17T03:15:17.477Z,99663.97
2022-08-17T03:17:46.288Z,99662.34
2022-08-17T03:20:16.074Z,99674.13
2022-08-17T03:22:48.096Z,99670.09
2022-08-17T03:25:25.911Z,99676.22
2022-08-17T03:27:55.104Z,99674.97
2022-08-17T03:30:24.021Z,99675.34
2022-08-17T03:32:54.759Z,99676.50
2022-08-17T03:35:25.256Z,99668.09
2022-08-17T03:38:00.733Z,99668.09
2022-08-17T03:40:39.894Z,99671.59
2022-08-17T03:43:21.708Z,99665.75
2022-08-17T03:46:11.012Z,99662.38
2022-08-17T03:49:12.830Z,99658.47
2022-08-17T03:51:58.195Z,99656.94
2022-08-17T03:54:43.670Z,99665.03
2022-08-17T03:57:13.582Z,99656.56
2022-08-17T03:59:42.359Z,99648.72
2022-08-17T04:02:14.494Z,99646.91
2022-08-17T04:04:42.710Z,99646.38
2022-08-17T04:07:11.378Z,99650.63
2022-08-17T04:09:39.336Z,99650.94
2022-08-17T04:12:07.530Z,99654.44
2022-08-17T04:14:51.785Z,99653.91
2022-08-17T04:17:24.114Z,99654.97
2022-08-17T04:19:52.932Z,99660.75
2022-08-17T04:22:31.318Z,99664.09
2022-08-17T04:25:05.218Z,99665.84
2022-08-17T04:27:33.271Z,99694.84
2022-08-17T04:30:02.915Z,99740.22
2022-08-17T04:33:05.366Z,99775.78
2022-08-17T04:35:22.136Z,99781.09
2022-08-17T04:37:50.080Z,99759.13
2022-08-17T04:40:36.238Z,99739.00
2022-08-17T04:43:05.768Z,99730.81
2022-08-17T04:45:35.541Z,99728.19
2022-08-17T04:48:04.270Z,99744.16
2022-08-17T04:50:32.746Z,99748.84
2022-08-17T04:53:01.319Z,99729.63
2022-08-17T04:55:29.818Z,99710.13
2022-08-17T04:57:58.052Z,99717.13
2022-08-17T05:00:27.033Z,99722.47
2022-08-17T05:02:57.370Z,99718.31
2022-08-17T05:05:28.112Z,99709.88
2022-08-17T05:07:58.917Z,99702.72
2022-08-17T05:10:30.886Z,99719.47
2022-08-17T05:13:00.556Z,99714.28
2022-08-17T05:15:29.619Z,99709.00
2022-08-17T05:18:02.994Z,99725.00
2022-08-17T05:20:31.856Z,99723.69
2022-08-17T05:23:04.590Z,99716.56
2022-08-17T05:25:38.075Z,99730.66
2022-08-17T05:28:07.475Z,99736.66
2022-08-17T05:30:37.209Z,99707.50
2022-08-17T05:33:08.756Z,99717.41
2022-08-17T05:35:39.916Z,99729.19
2022-08-17T05:38:08.635Z,99720.38
2022-08-17T05:40:37.608Z,99722.84
2022-08-17T05:43:08.136Z,99742.81
2022-08-17T05:45:54.678Z,99735.13
2022-08-17T05:48:39.447Z,99743.25
2022-08-17T05:51:28.763Z,99750.72
2022-08-17T05:54:11.475Z,99748.31
2022-08-17T05:56:56.203Z,99762.09
2022-08-17T05:59:34.389Z,99761.44
2022-08-17T06:02:11.044Z,99748.75
2022-08-17T06:04:55.365Z,99741.72
2022-08-17T06:07:32.627Z,99741.63
2022-08-17T06:10:07.358Z,99737.03
2022-08-17T06:12:54.106Z,99740.81
2022-08-17T06:15:33.690Z,99725.38
2022-08-17T06:18:06.979Z,99732.03
2022-08-17T06:20:47.859Z,99725.59
2022-08-17T06:23:22.829Z,99726.81
2022-08-17T06:25:54.686Z,99726.19
2022-08-17T06:28:30.052Z,99717.72
2022-08-17T06:31:03.194Z,99724.41
2022-08-17T06:33:36.534Z,99731.66
2022-08-17T06:36:17.501Z,99715.19
2022-08-17T06:38:58.330Z,99724.06
2022-08-17T06:41:37.988Z,99739.13
2022-08-17T06:44:49.783Z,99737.59
2022-08-17T06:47:28.609Z,99728.78
2022-08-17T06:50:07.094Z,99729.22
2022-08-17T06:52:46.860Z,99751.50
2022-08-17T06:55:21.190Z,99755.34
2022-08-17T06:57:54.208Z,99774.13
2022-08-17T07:00:24.945Z,99779.88
2022-08-17T07:02:56.810Z,99768.44
2022-08-17T07:05:28.581Z,99769.09
2022-08-17T07:08:02.724Z,99761.16
2022-08-17T07:10:37.656Z,99745.50
2022-08-17T07:13:23.469Z,99733.06
2022-08-17T07:15:57.183Z,99725.78
2022-08-17T07:18:33.064Z,99750.13
2022-08-17T07:21:17.588Z,99766.88
2022-08-17T07:24:01.867Z,99765.84
2022-08-17T07:26:30.112Z,99776.28
2022-08-17T07:29:00.651Z,99779.00
2022-08-17T07:31:33.516Z,99781.91
2022-08-17T07:34:14.608Z,99789.00
2022-08-17T07:36:42.665Z,99787.34
2022-08-17T07:39:12.126Z,99776.13
2022-08-17T07:41:53.194Z,99765.00
2022-08-17T07:44:27.621Z,99770.69
2022-08-17T07:47:28.799Z,99757.00
2022-08-17T07:49:56.780Z,99770.09
2022-08-17T07:52:50.875Z,99776.38
2022-08-17T07:55:32.799Z,99790.06
2022-08-17T07:58:01.826Z,99788.84
2022-08-17T08:00:32.519Z,99783.47
2022-08-17T08:03:18.289Z,99799.44
2022-08-17T08:05:57.387Z,99791.09
2022-08-17T08:08:29.920Z,99779.03
2022-08-17T08:11:10.262Z,99770.59
2022-08-17T08:13:43.902Z,99770.88
2022-08-17T08:16:29.409Z,99770.41
2022-08-17T08:19:00.022Z,99777.75
2022-08-17T08:21:47.305Z,99787.84
2022-08-17T08:24:40.922Z,99793.09
2022-08-17T08:27:27.095Z,99794.63
2022-08-17T08:30:02.952Z,99778.19
2022-08-17T08:32:50.319Z,99785.72
2022-08-17T08:35:30.946Z,99793.09
2022-08-17T08:38:09.615Z,99790.47
2022-08-17T08:41:02.431Z,99790.28
2022-08-17T08:43:41.550Z,99773.88
2022-08-17T08:46:22.666Z,99771.44
2022-08-17T08:49:58.993Z,99794.81
2022-08-17T08:52:32.371Z,99826.25
2022-08-17T08:55:10.232Z,99840.50
2022-08-17T08:57:45.105Z,99845.69
2022-08-17T09:00:19.037Z,99841.44
2022-08-17T09:03:17.023Z,99847.56
2022-08-17T09:06:03.054Z,99841.91
2022-08-17T09:08:42.610Z,99818.63
2022-08-17T09:11:18.322Z,99829.00
2022-08-17T09:13:58.246Z,99823.06
2022-08-17T09:16:33.173Z,99825.41
2022-08-17T09:19:06.918Z,99814.56
2022-08-17T09:21:47.702Z,99816.13
2022-08-17T09:24:22.806Z,99826.13
2022-08-17T09:26:58.835Z,99841.75
2022-08-17T09:29:30.537Z,99837.53
2022-08-17T09:32:03.724Z,99843.41
2022-08-17T09:34:36.176Z,99861.09
2022-08-17T09:37:17.071Z,99863.38
2022-08-17T09:39:54.026Z,99862.78
2022-08-17T09:42:29.162Z,99865.69
2022-08-17T09:45:08.211Z,99849.63
2022-08-17T09:47:46.697Z,99834.72
2022-08-17T09:50:20.145Z,99832.38
2022-08-17T09:53:09.177Z,99828.50
2022-08-17T09:55:49.095Z,99830.31
2022-08-17T09:58:25.661Z,99834.78
2022-08-17T10:01:04.554Z,99837.31
2022-08-17T10:03:59.400Z,99835.84
2022-08-17T10:06:33.569Z,99840.94
2022-08-17T10:09:08.995Z,99848.88
2022-08-17T10:12:04.617Z,99843.38
2022-08-17T10:14:43.876Z,99847.97
2022-08-17T10:17:22.525Z,99850.78
2022-08-17T10:20:00.418Z,99842.78
2022-08-17T10:22:54.928Z,99840.22
2022-08-17T10:25:54.597Z,99856.28
2022-08-17T10:28:29.858Z,99856.09
2022-08-17T10:31:30.968Z,99861.50
2022-08-17T10:34:01.220Z,99861.75
2022-08-17T10:36:43.191Z,99880.06
2022-08-17T10:39:21.185Z,99877.44
2022-08-17T10:41:53.976Z,99881.94
2022-08-17T10:44:39.012Z,99887.28
2022-08-17T10:47:11.618Z,99879.16
2022-08-17T10:49:47.810Z,99873.22
2022-08-17T10:52:52.325Z,99882.69
2022-08-17T10:55:21.411Z,99860.91
2022-08-17T10:57:55.045Z,99861.06
2022-08-17T11:00:57.764Z,99854.09
2022-08-17T11:03:27.601Z,99848.78
2022-08-17T11:06:12.557Z,99852.56
2022-08-17T11:09:16.513Z,99846.53
2022-08-17T11:12:06.752Z,99851.34
2022-08-17T11:14:50.165Z,99843.69
2022-08-17T11:17:45.513Z,99843.22
2022-08-17T11:20:46.676Z,99840.81
2022-08-17T11:23:50.222Z,99836.41
2022-08-17T11:26:27.104Z,99851.75
2022-08-17T11:29:01.416Z,99862.84
2022-08-17T11:31:38.396Z,99854.13
2022-08-17T11:34:17.081Z,99854.69
2022-08-17T11:37:22.027Z,99852.00
2022-08-17T11:40:16.071Z,99852.38
2022-08-17T11:43:00.676Z,99854.50
2022-08-17T11:45:50.986Z,99848.84
2022-08-17T11:48:44.781Z,99849.66
2022-08-17T11:51:34.727Z,99842.19
2022-08-17T11:57:00.019Z,99846.38
2022-08-17T12:00:00.027Z,99845.78
2022-08-17T12:02:35.555Z,99844.66
2022-08-17T12:05:26.042Z,99845.28
2022-08-17T12:08:11.759Z,99851.38
2022-08-17T12:10:57.383Z,99844.50
2022-08-17T12:13:39.368Z,99842.91
2022-08-17T12:16:15.209Z,99848.72
2022-08-17T12:18:51.630Z,99848.16
2022-08-17T12:21:38.674Z,99853.59
2022-08-17T12:24:15.681Z,99855.78
2022-08-17T12:26:45.256Z,99859.22
2022-08-17T12:29:35.824Z,99855.91
2022-08-17T12:32:17.810Z,99850.22
2022-08-17T12:34:47.828Z,99839.31
2022-08-17T12:37:22.794Z,99841.63
2022-08-17T12:39:54.657Z,99843.97
2022-08-17T12:42:26.773Z,99843.25
2022-08-17T12:44:54.947Z,99840.22
2022-08-17T12:47:29.561Z,99832.31
2022-08-17T12:50:08.471Z,99830.00
2022-08-17T12:53:02.219Z,99821.09
2022-08-17T12:55:38.874Z,99828.44
2022-08-17T12:58:12.238Z,99831.75
2022-08-17T13:00:51.125Z,99816.50
2022-08-17T13:03:24.463Z,99815.13
2022-08-17T13:05:58.986Z,99821.25
2022-08-17T13:08:35.875Z,99803.16
2022-08-17T13:11:09.386Z,99803.34
2022-08-17T13:13:43.776Z,99805.06
2022-08-17T13:16:19.098Z,99798.88
2022-08-17T13:18:51.936Z,99788.25
2022-08-17T13:21:27.754Z,99787.19
2022-08-17T13:24:03.577Z,99779.38
2022-08-17T13:26:37.974Z,99780.66
2022-08-17T13:29:08.128Z,99769.75
2022-08-17T13:31:42.876Z,99770.13
2022-08-17T13:35:01.675Z,99765.91
2022-08-17T13:37:36.333Z,99771.97
2022-08-17T13:40:29.692Z,99773.59
2022-08-17T13:42:58.559Z,99784.59
2022-08-17T13:45:52.923Z,99780.13
2022-08-17T13:48:25.826Z,99770.47
2022-08-17T13:51:20.894Z,99758.69
2022-08-17T13:54:15.044Z,99760.56
2022-08-17T13:57:04.236Z,99761.66
2022-08-17T13:59:53.004Z,99763.34
2022-08-17T14:02:25.988Z,99754.34
2022-08-17T14:05:02.039Z,99751.69
2022-08-17T14:07:45.763Z,99747.75
2022-08-17T14:10:17.434Z,99746.28
2022-08-17T14:12:46.622Z,99752.97
2022-08-17T14:15:17.877Z,99743.94
2022-08-17T14:17:52.275Z,99744.72
2022-08-17T14:20:22.515Z,99750.34
2022-08-17T14:22:55.686Z,99739.91
2022-08-17T14:25:26.342Z,99737.84
2022-08-17T14:27:55.716Z,99729.41
2022-08-17T14:30:26.013Z,99728.38
2022-08-17T14:32:56.615Z,99721.69
2022-08-17T14:35:27.392Z,99727.78
2022-08-17T14:37:58.729Z,99732.03
2022-08-17T14:40:28.024Z,99733.19
2022-08-17T14:42:57.791Z,99729.81
2022-08-17T14:45:32.553Z,99730.47
2022-08-17T14:48:05.651Z,99726.88
2022-08-17T14:50:35.827Z,99726.09
2022-08-17T14:53:08.002Z,99718.66
2022-08-17T14:55:39.668Z,99722.00
2022-08-17T14:58:08.821Z,99714.13
2022-08-17T15:00:37.607Z,99706.47
2022-08-17T15:03:06.030Z,99711.81
2022-08-17T15:05:36.651Z,99715.50
2022-08-17T15:08:07.110Z,99710.72
2022-08-17T15:10:35.892Z,99713.81
2022-08-17T15:13:05.052Z,99707.44
2022-08-17T15:15:34.136Z,99707.38
2022-08-17T15:18:02.600Z,99705.16
2022-08-17T15:20:31.525Z,99707.38
2022-08-17T15:23:00.275Z,99711.78
2022-08-17T15:25:32.163Z,99722.44
2022-08-17T15:28:01.614Z,99723.97
2022-08-17T15:30:30.967Z,99717.81
2022-08-17T15:33:00.521Z,99719.91
2022-08-17T15:35:31.423Z,99718.84
2022-08-17T15:38:04.571Z,99717.00
2022-08-17T15:40:40.438Z,99709.13
2022-08-17T15:43:11.219Z,99714.50
2022-08-17T15:45:40.318Z,99710.81
2022-08-17T15:48:09.146Z,99704.00
2022-08-17T15:50:37.334Z,99706.66
2022-08-17T15:53:05.538Z,99712.78
2022-08-17T15:55:34.946Z,99702.28
2022-08-17T15:58:04.558Z,99699.56
2022-08-17T16:00:39.793Z,99700.13
2022-08-17T16:03:45.087Z,99696.78
2022-08-17T16:06:09.767Z,99697.81
2022-08-17T16:08:41.586Z,99701.25
2022-08-17T16:11:10.993Z,99707.78
2022-08-17T16:13:41.560Z,99712.09
2022-08-17T16:16:10.770Z,99704.50
2022-08-17T16:18:39.775Z,99694.41
2022-08-17T16:21:42.399Z,99702.00
2022-08-17T16:24:13.736Z,99703.53
2022-08-17T16:26:43.578Z,99712.94
2022-08-17T16:29:12.762Z,99710.47
2022-08-17T16:31:41.759Z,99707.53
2022-08-17T16:34:18.024Z,99703.56
2022-08-17T16:36:55.198Z,99711.97
2022-08-17T16:39:24.040Z,99714.16
2022-08-17T16:41:52.025Z,99716.22
2022-08-17T16:44:22.740Z,99715.13
2022-08-17T16:46:51.238Z,99703.19
2022-08-17T16:49:35.706Z,99706.66
2022-08-17T16:52:09.821Z,99699.06
2022-08-17T16:54:40.546Z,99695.16
2022-08-17T16:57:08.802Z,99693.47
2022-08-17T16:59:40.769Z,99694.22
2022-08-17T17:02:15.675Z,99693.53
2022-08-17T17:04:52.950Z,99686.72
2022-08-17T17:07:39.151Z,99687.94
2022-08-17T17:10:11.518Z,99687.22
2022-08-17T17:13:01.041Z,99687.06
2022-08-17T17:15:41.440Z,99685.78
2022-08-17T17:18:13.938Z,99684.94
2022-08-17T17:20:48.585Z,99680.81
2022-08-17T17:23:29.207Z,99690.72
2022-08-17T17:26:08.142Z,99687.22
2022-08-17T17:28:46.231Z,99692.72
2022-08-17T17:31:17.986Z,99687.97
2022-08-17T17:33:48.829Z,99688.31
2022-08-17T17:36:27.515Z,99684.75
2022-08-17T17:39:00.227Z,99676.69
2022-08-17T17:41:34.185Z,99675.13
2022-08-17T17:44:07.473Z,99671.28
2022-08-17T17:46:40.750Z,99674.06
2022-08-17T17:49:10.658Z,99665.78
2022-08-17T17:52:09.555Z,99670.69
2022-08-17T17:54:51.094Z,99669.50
2022-08-17T17:57:26.746Z,99660.44
2022-08-17T18:00:03.772Z,99664.47
2022-08-17T18:02:57.319Z,99661.72
2022-08-17T18:05:49.920Z,99656.81
2022-08-17T18:08:32.175Z,99659.75
2022-08-17T18:11:14.125Z,99659.84
2022-08-17T18:13:56.300Z,99658.66
2022-08-17T18:16:24.921Z,99663.38
2022-08-17T18:18:58.677Z,99667.41
2022-08-17T18:21:39.276Z,99666.91
2022-08-17T18:24:10.604Z,99668.81
2022-08-17T18:26:44.913Z,99665.19
2022-08-17T18:29:32.389Z,99669.53
2022-08-17T18:32:23.798Z,99673.75
2022-08-17T18:34:56.527Z,99682.47
2022-08-17T18:37:44.995Z,99682.25
2022-08-17T18:40:36.218Z,99682.97
2022-08-17T18:43:24.221Z,99682.84
2022-08-17T18:45:54.466Z,99681.91
2022-08-17T18:48:27.487Z,99679.97
2022-08-17T18:50:59.700Z,99687.13
2022-08-17T18:53:37.426Z,99692.28
2022-08-17T18:56:33.227Z,99701.63
2022-08-17T18:59:11.220Z,99715.66
2022-08-17T19:01:52.526Z,99721.03
2022-08-17T19:04:35.061Z,99722.38
2022-08-17T19:07:25.632Z,99718.34
2022-08-17T19:09:58.296Z,99718.41
2022-08-17T19:12:31.056Z,99720.75
2022-08-17T19:15:01.008Z,99722.41
2022-08-17T19:17:37.571Z,99733.94
2022-08-17T19:20:13.936Z,99738.09
2022-08-17T19:22:55.043Z,99747.94
2022-08-17T19:25:27.398Z,99747.34
2022-08-17T19:28:00.161Z,99747.47
2022-08-17T19:30:28.927Z,99740.00
2022-08-17T19:32:58.435Z,99740.03
2022-08-17T19:35:34.360Z,99736.88
2022-08-17T19:38:12.764Z,99730.59
2022-08-17T19:41:04.724Z,99732.28
2022-08-17T19:43:55.347Z,99743.56
2022-08-17T19:46:30.787Z,99742.56
2022-08-17T19:49:11.133Z,99738.06
2022-08-17T19:51:48.125Z,99738.56
2022-08-17T19:54:26.431Z,99747.88
2022-08-17T19:57:01.752Z,99740.09
2022-08-17T19:59:48.918Z,99754.88
2022-08-17T20:02:37.481Z,99750.56
2022-08-17T20:05:13.756Z,99753.53
2022-08-17T20:07:48.758Z,99748.38
2022-08-17T20:10:31.555Z,99754.53
2022-08-17T20:13:06.318Z,99752.53
2022-08-17T20:15:37.801Z,99755.19
2022-08-17T20:18:17.418Z,99747.88
2022-08-17T20:20:54.908Z,99753.38
2022-08-17T20:23:45.131Z,99749.19
2022-08-17T20:26:22.521Z,99745.91
2022-08-17T20:29:09.995Z,99741.91
2022-08-17T20:31:45.741Z,99738.22
2022-08-17T20:34:36.945Z,99730.25
2022-08-17T20:37:08.609Z,99731.78
2022-08-17T20:39:40.677Z,99728.63
2022-08-17T20:42:29.534Z,99735.56
2022-08-17T20:45:02.374Z,99733.25
2022-08-17T20:47:34.829Z,99741.91
2022-08-17T20:50:06.885Z,99743.53
2022-08-17T20:52:53.312Z,99743.25
2022-08-17T20:55:53.294Z,99739.91
2022-08-17T20:58:48.560Z,99741.41
2022-08-17T21:01:24.423Z,99741.41
2022-08-17T21:03:56.363Z,99742.56
2022-08-17T21:06:26.003Z,99741.72
2022-08-17T21:08:58.630Z,99739.56
2022-08-17T21:12:04.273Z,99737.44
2022-08-17T21:14:51.995Z,99736.09
2022-08-17T21:17:41.854Z,99745.19
2022-08-17T21:20:26.998Z,99738.75
2022-08-17T21:23:27.841Z,99744.06
2022-08-17T21:26:11.115Z,99748.41
2022-08-17T21:29:00.379Z,99738.78
2022-08-17T21:31:37.964Z,99748.56
2022-08-17T21:34:30.614Z,99754.50
2022-08-17T21:37:28.518Z,99760.50
2022-08-17T21:40:00.034Z,99759.16
2022-08-17T21:42:31.620Z,99768.75
2022-08-17T21:45:09.147Z,99765.97
2022-08-17T21:47:48.690Z,99759.97
2022-08-17T21:50:21.165Z,99759.50
2022-08-17T21:52:51.520Z,99763.47
2022-08-17T21:55:28.055Z,99764.31
2022-08-17T21:58:14.958Z,99758.84
2022-08-17T22:00:45.101Z,99766.31
2022-08-17T22:03:25.852Z,99768.50
2022-08-17T22:05:53.819Z,99774.13
2022-08-17T22:08:24.242Z,99779.47
2022-08-17T22:11:01.532Z,99785.31
2022-08-17T22:13:30.151Z,99786.38
2022-08-17T22:16:15.343Z,99788.41
2022-08-17T22:18:59.651Z,99795.19
2022-08-17T22:21:28.144Z,99806.00
2022-08-17T22:24:07.434Z,99802.94
2022-08-17T22:27:03.702Z,99796.25
2022-08-17T22:29:57.378Z,99801.31
2022-08-17T22:32:38.548Z,99817.19
2022-08-17T22:35:38.813Z,99832.31
2022-08-17T22:38:26.377Z,99831.56
2022-08-17T22:40:58.529Z,99830.25
2022-08-17T22:43:28.957Z,99835.00
2022-08-17T22:46:00.946Z,99836.91
2022-08-17T22:48:31.180Z,99844.44
2022-08-17T22:51:12.866Z,99836.34
2022-08-17T22:54:10.686Z,99846.38
2022-08-17T22:56:56.760Z,99855.34
2022-08-17T22:59:43.593Z,99847.94
2022-08-17T23:02:15.451Z,99844.41
2022-08-17T23:04:47.762Z,99846.88
2022-08-17T23:07:17.473Z,99852.16
2022-08-17T23:09:45.798Z,99849.72
2022-08-17T23:12:23.563Z,99841.09
2022-08-17T23:14:58.405Z,99837.97
2022-08-17T23:17:27.504Z,99852.66
2022-08-17T23:19:57.094Z,99854.97
2022-08-17T23:22:26.394Z,99857.88
2022-08-17T23:24:54.583Z,99864.63
2022-08-17T23:27:23.183Z,99880.72
2022-08-17T23:29:51.431Z,99893.91
2022-08-17T23:32:19.740Z,99899.97
2022-08-17T23:34:49.414Z,99905.16
2022-08-17T23:37:19.367Z,99905.16
2022-08-17T23:39:48.761Z,99915.56
2022-08-17T23:42:21.708Z,99911.94
2022-08-17T23:44:50.531Z,99903.00
2022-08-17T23:47:18.489Z,99915.47
2022-08-17T23:49:46.393Z,99909.78
2022-08-17T23:52:16.602Z,99919.34
2022-08-17T23:54:48.316Z,99911.09
2022-08-17T23:57:19.138Z,99925.06
2022-08-17T23:59:48.882Z,99918.84
